Time;durP1;ratioP1;P1;durP2;ratioP2;P2;SDS_P1;SDS_P2;PMS_P1;PMS_P2;Temp;Humidity;BMP_temperature;BMP_pressure;BME280_temperature;BME280_humidity;BME280_pressure;Samples;Min_cycle;Max_cycle;Signal;HPM_P1;HPM_P2
2022/02/06 00:00:31;;;;;;;6.90;2.60;;;4.40;99.90;;;;;;5091103;28;20408;-56
2022/02/06 00:02:58;;;;;;;8.10;2.50;;;3.00;99.90;;;;;;5102387;28;20408;-57
2022/02/06 00:05:24;;;;;;;8.18;3.10;;;2.90;99.90;;;;;;5093601;28;20724;-56
2022/02/06 00:07:50;;;;;;;8.65;2.40;;;2.90;99.90;;;;;;5092014;28;20434;-57
2022/02/06 00:10:17;;;;;;;8.30;2.40;;;2.90;99.90;;;;;;5089562;28;20492;-57
2022/02/06 00:12:42;;;;;;;7.63;2.58;;;2.90;99.90;;;;;;5092164;28;20436;-56
2022/02/06 00:15:09;;;;;;;7.90;2.47;;;3.00;99.90;;;;;;5083636;28;20533;-56
2022/02/06 00:17:35;;;;;;;7.47;2.60;;;3.00;99.90;;;;;;5083941;28;20457;-56
2022/02/06 00:20:01;;;;;;;6.50;2.40;;;4.90;99.90;;;;;;5085987;28;20795;-56
2022/02/06 00:25:14;;;;;;;6.65;2.05;;;3.00;99.90;;;;;;5099088;28;20690;-56
2022/02/06 00:30:27;;;;;;;8.98;2.50;;;3.20;99.90;;;;;;5092170;28;20400;-56
2022/02/06 00:33:03;;;;;;;6.70;2.00;;;3.10;99.90;;;;;;5094240;28;20385;-56
2022/02/06 00:35:52;;;;;;;7.82;2.53;;;3.20;99.90;;;;;;5097457;28;20394;-56
2022/02/06 00:38:35;;;;;;;9.38;2.15;;;3.10;99.90;;;;;;5082399;28;20947;-57
2022/02/06 00:41:14;;;;;;;12.63;2.50;;;3.10;99.90;;;;;;5085411;28;20422;-56
2022/02/06 00:43:42;;;;;;;9.30;2.10;;;3.20;99.90;;;;;;5083939;28;20374;-57
2022/02/06 00:46:09;;;;;;;7.53;1.98;;;3.20;99.90;;;;;;5094992;28;20396;-56
2022/02/06 00:48:39;;;;;;;6.93;2.50;;;3.20;99.90;;;;;;5098423;28;20485;-56
2022/02/06 00:51:17;;;;;;;6.97;2.30;;;3.20;99.90;;;;;;5101018;28;20384;-56
2022/02/06 00:53:43;;;;;;;8.17;1.90;;;3.20;99.90;;;;;;5086892;28;20410;-56
2022/02/06 00:56:09;;;;;;;7.60;2.20;;;3.20;99.90;;;;;;5089664;28;20382;-57
2022/02/06 00:58:35;;;;;;;5.70;1.97;;;3.20;99.90;;;;;;5084377;28;20401;-56
2022/02/06 01:01:01;;;;;;;10.10;2.23;;;3.20;99.90;;;;;;5089666;28;20511;-56
2022/02/06 01:03:27;;;;;;;6.95;1.95;;;3.30;99.90;;;;;;5088914;28;20542;-56
2022/02/06 01:05:54;;;;;;;6.40;1.73;;;3.30;99.90;;;;;;5084942;28;20403;-56
2022/02/06 01:08:20;;;;;;;6.55;1.80;;;3.30;99.90;;;;;;5085467;28;20723;-56
2022/02/06 01:10:46;;;;;;;9.23;2.20;;;3.30;99.90;;;;;;5085568;28;20397;-56
2022/02/06 01:13:21;;;;;;;6.05;1.70;;;3.30;99.90;;;;;;5088651;28;20393;-56
2022/02/06 01:15:59;;;;;;;7.63;1.90;;;4.40;99.90;;;;;;5087871;28;20425;-56
2022/02/06 01:18:28;;;;;;;5.22;2.00;;;3.20;99.90;;;;;;5086678;28;20406;-56
2022/02/06 01:21:02;;;;;;;6.38;2.08;;;4.90;99.90;;;;;;5089176;28;20402;-56
2022/02/06 01:23:36;;;;;;;9.98;2.40;;;4.10;99.90;;;;;;5088891;28;20782;-56
2022/02/06 01:26:07;;;;;;;5.60;1.75;;;3.30;99.90;;;;;;5087072;28;20385;-56
2022/02/06 01:28:41;;;;;;;7.43;1.80;;;3.30;99.90;;;;;;5086591;28;20462;-56
2022/02/06 01:33:55;;;;;;;6.17;1.90;;;3.40;99.90;;;;;;5083281;28;20759;-56
2022/02/06 01:36:32;;;;;;;9.77;1.63;;;3.40;99.90;;;;;;5086391;28;20783;-56
2022/02/06 01:39:06;;;;;;;5.72;1.45;;;3.40;99.90;;;;;;5087042;28;20383;-56
2022/02/06 01:41:37;;;;;;;7.00;1.70;;;3.40;99.90;;;;;;5086957;28;20374;-56
2022/02/06 01:44:09;;;;;;;8.15;1.65;;;3.50;99.90;;;;;;5088788;28;20382;-56
2022/02/06 01:46:55;;;;;;;8.20;2.20;;;3.50;99.90;;;;;;5086786;28;20516;-56
2022/02/06 02:06:13;;;;;;;7.28;1.50;;;4.00;99.90;;;;;;5088634;28;21248;-56
2022/02/06 02:16:40;;;;;;;5.85;1.60;;;4.00;99.90;;;;;;5083937;28;20401;-56
2022/02/06 02:46:03;;;;;;;8.55;1.60;;;5.10;99.90;;;;;;5089819;28;20386;-56
2022/02/06 02:48:29;;;;;;;5.90;1.50;;;4.60;99.90;;;;;;5094654;28;20430;-57
2022/02/06 02:51:00;;;;;;;6.00;1.47;;;4.10;99.90;;;;;;5096349;28;20473;-56
2022/02/06 03:01:09;;;;;;;6.03;1.10;;;4.50;99.90;;;;;;5096329;28;20409;-56
2022/02/06 03:03:37;;;;;;;4.72;1.10;;;4.60;99.90;;;;;;5095518;28;20476;-56
2022/02/06 03:06:05;;;;;;;6.00;1.20;;;4.70;99.90;;;;;;5096246;28;20862;-56
2022/02/06 03:08:33;;;;;;;7.63;1.25;;;4.70;99.90;;;;;;5095368;28;20374;-57
2022/02/06 03:11:03;;;;;;;5.50;1.50;;;4.80;99.90;;;;;;5094079;28;20923;-56
2022/02/06 03:14:07;;;;;;;6.00;1.20;;;4.80;99.90;;;;;;5084380;28;20393;-56
2022/02/06 03:16:32;;;;;;;8.90;1.50;;;5.90;99.90;;;;;;5094078;28;20398;-57
2022/02/06 03:19:04;;;;;;;4.70;1.20;;;5.20;99.90;;;;;;5095969;28;20416;-57
2022/02/06 03:21:31;;;;;;;5.33;1.10;;;4.70;99.90;;;;;;5095482;28;20844;-57
2022/02/06 03:24:09;;;;;;;6.40;1.30;;;4.70;99.90;;;;;;5096136;28;20381;-57
2022/02/06 03:26:35;;;;;;;8.98;1.20;;;4.70;99.90;;;;;;5095602;28;20495;-57
2022/02/06 03:29:00;;;;;;;8.05;1.50;;;4.70;99.90;;;;;;5095990;28;20406;-57
2022/02/06 03:31:26;;;;;;;5.00;1.00;;;4.80;99.90;;;;;;5095394;28;20518;-57
2022/02/06 03:33:52;;;;;;;5.25;1.05;;;4.70;99.90;;;;;;5096186;28;20759;-57
2022/02/06 03:36:19;;;;;;;5.13;1.40;;;4.70;99.90;;;;;;5095419;28;20431;-57
2022/02/06 03:38:48;;;;;;;5.38;1.10;;;4.70;99.90;;;;;;5096110;28;20438;-57
2022/02/06 03:41:16;;;;;;;5.80;1.10;;;4.70;99.90;;;;;;5094692;28;20397;-57
2022/02/06 03:46:25;;;;;;;9.00;1.30;;;4.60;99.90;;;;;;5095866;28;20424;-57
2022/02/06 03:48:57;;;;;;;5.00;1.20;;;4.70;99.90;;;;;;5096007;28;20465;-57
2022/02/06 03:51:30;;;;;;;10.68;1.40;;;4.80;99.90;;;;;;5095371;28;20479;-57
2022/02/06 03:53:56;;;;;;;7.55;1.20;;;4.80;99.90;;;;;;5095840;28;20378;-57
2022/02/06 03:56:22;;;;;;;7.32;1.40;;;4.70;99.90;;;;;;5093793;28;20386;-57
2022/02/06 03:58:48;;;;;;;5.32;1.20;;;4.60;99.90;;;;;;5093222;28;20917;-57
2022/02/06 04:01:15;;;;;;;6.25;1.20;;;4.50;99.90;;;;;;5092849;28;20410;-57
2022/02/06 04:03:40;;;;;;;5.53;1.60;;;4.50;99.90;;;;;;5091846;28;20389;-56
2022/02/06 04:06:06;;;;;;;6.25;2.00;;;4.50;99.90;;;;;;5092576;28;20378;-57
2022/02/06 04:08:35;;;;;;;7.50;1.40;;;4.60;99.90;;;;;;5091710;28;20378;-57
2022/02/06 04:11:04;;;;;;;6.80;1.42;;;6.00;99.90;;;;;;5092453;28;20489;-57
2022/02/06 04:13:32;;;;;;;5.53;1.10;;;4.70;99.90;;;;;;5091299;28;20378;-57
2022/02/06 04:16:00;;;;;;;6.40;1.15;;;4.70;99.90;;;;;;5090969;28;20928;-57
2022/02/06 04:18:47;;;;;;;6.13;1.40;;;4.70;99.90;;;;;;5076935;28;20415;-57
2022/02/06 04:21:13;;;;;;;7.03;1.30;;;4.80;99.90;;;;;;5076520;28;20407;-57
2022/02/06 04:23:38;;;;;;;4.23;1.10;;;4.80;99.90;;;;;;5077019;28;20456;-57
2022/02/06 04:26:04;;;;;;;7.00;1.27;;;5.70;99.90;;;;;;5080232;28;20425;-57
2022/02/06 04:28:30;;;;;;;5.50;1.10;;;4.90;99.90;;;;;;5086739;28;20739;-57
2022/02/06 04:30:55;;;;;;;5.35;1.00;;;4.90;99.90;;;;;;5071566;28;20789;-57
2022/02/06 04:33:21;;;;;;;5.20;1.15;;;4.90;99.90;;;;;;5071200;28;20429;-57
2022/02/06 04:35:50;;;;;;;6.37;2.10;;;4.80;99.90;;;;;;5071745;28;20442;-56
2022/02/06 05:34:38;;;;;;;6.60;1.50;;;4.70;99.90;;;;;;5070012;28;20577;-57
2022/02/06 05:37:03;;;;;;;7.50;1.60;;;4.70;99.90;;;;;;5070654;28;20857;-58
2022/02/06 05:39:29;;;;;;;6.63;1.43;;;4.70;99.90;;;;;;5069678;28;20404;-57
2022/02/06 05:41:55;;;;;;;5.15;1.35;;;4.60;99.90;;;;;;5070685;28;20394;-57
2022/02/06 05:44:20;;;;;;;5.43;1.13;;;4.60;99.90;;;;;;5069995;28;20372;-58
2022/02/06 05:46:46;;;;;;;5.15;1.25;;;4.60;99.90;;;;;;5070559;28;20845;-57
2022/02/06 05:49:13;;;;;;;5.30;1.30;;;4.60;99.90;;;;;;5078705;28;20402;-57
2022/02/06 05:51:39;;;;;;;6.97;1.87;;;6.40;99.90;;;;;;5081148;28;20383;-57
2022/02/06 05:54:06;;;;;;;9.50;1.40;;;4.60;99.90;;;;;;5079224;28;20867;-57
2022/02/06 05:56:31;;;;;;;6.15;1.40;;;4.50;99.90;;;;;;5078763;28;20698;-57
2022/02/06 05:58:58;;;;;;;6.65;1.40;;;4.70;99.90;;;;;;5070086;28;20390;-57
2022/02/06 06:01:23;;;;;;;5.20;1.10;;;4.70;99.90;;;;;;5077964;28;20527;-57
2022/02/06 06:03:51;;;;;;;6.50;1.35;;;4.70;99.90;;;;;;5083123;28;20857;-57
2022/02/06 06:06:16;;;;;;;7.18;1.20;;;6.00;99.90;;;;;;5073402;28;20399;-57
2022/02/06 06:08:42;;;;;;;7.50;1.67;;;4.70;99.90;;;;;;5078454;28;20385;-57
2022/02/06 06:11:08;;;;;;;5.70;1.30;;;4.90;99.90;;;;;;5079041;28;20441;-57
2022/02/06 06:13:33;;;;;;;5.22;1.70;;;4.70;99.90;;;;;;5105446;28;20401;-57
2022/02/06 06:15:59;;;;;;;6.10;1.40;;;4.70;99.90;;;;;;5089735;28;20382;-57
2022/02/06 06:18:25;;;;;;;7.70;1.52;;;4.80;99.90;;;;;;5089037;28;20439;-57
2022/02/06 06:20:52;;;;;;;5.53;1.40;;;4.80;99.90;;;;;;5089982;28;20397;-58
2022/02/06 06:23:18;;;;;;;8.83;1.60;;;4.70;99.90;;;;;;5089143;28;20382;-58
2022/02/06 06:25:49;;;;;;;5.20;1.30;;;4.80;99.90;;;;;;5089616;28;20469;-57
2022/02/06 06:28:14;;;;;;;5.57;1.10;;;6.50;99.90;;;;;;5089669;28;20958;-57
2022/02/06 06:30:40;;;;;;;6.90;1.50;;;5.50;99.90;;;;;;5088970;28;20472;-57
2022/02/06 06:33:06;;;;;;;7.57;1.60;;;4.80;99.90;;;;;;5090086;28;20688;-57
2022/02/06 06:35:33;;;;;;;6.40;1.30;;;4.90;99.90;;;;;;5087564;28;20910;-57
2022/02/06 06:38:00;;;;;;;5.15;1.10;;;5.00;99.90;;;;;;5089821;28;20415;-57
2022/02/06 06:40:29;;;;;;;5.20;1.20;;;4.90;99.90;;;;;;5089007;28;20406;-57
2022/02/06 06:42:55;;;;;;;6.75;1.35;;;4.90;99.90;;;;;;5090076;28;20382;-58
2022/02/06 06:45:22;;;;;;;6.78;1.50;;;5.40;99.90;;;;;;5087945;28;20401;-58
2022/02/06 06:47:55;;;;;;;5.85;1.38;;;5.10;99.90;;;;;;5089752;28;20382;-57
2022/02/06 06:50:21;;;;;;;5.10;1.38;;;5.00;99.90;;;;;;5089205;28;20492;-57
2022/02/06 06:52:48;;;;;;;7.30;1.50;;;5.00;99.90;;;;;;5087698;28;20390;-57
2022/02/06 06:55:18;;;;;;;6.93;1.63;;;6.20;99.90;;;;;;5089180;28;20387;-57
2022/02/06 06:57:54;;;;;;;7.78;2.00;;;5.00;99.90;;;;;;5085505;28;20421;-57
2022/02/06 07:00:36;;;;;;;9.75;1.80;;;5.10;99.90;;;;;;5088899;28;20432;-57
2022/02/06 07:03:02;;;;;;;13.38;1.50;;;5.10;99.90;;;;;;5088393;28;20847;-57
2022/02/06 07:05:27;;;;;;;5.47;1.30;;;5.10;99.90;;;;;;5080930;28;20401;-58
2022/02/06 07:07:56;;;;;;;6.53;1.40;;;5.10;99.90;;;;;;5089220;28;20378;-57
2022/02/06 07:10:21;;;;;;;7.13;1.70;;;5.20;99.90;;;;;;5088678;28;20400;-57
2022/02/06 07:12:47;;;;;;;7.43;1.80;;;5.10;99.90;;;;;;5087103;28;20811;-57
2022/02/06 07:15:13;;;;;;;8.02;1.42;;;5.20;99.90;;;;;;5088645;28;20926;-57
2022/02/06 07:17:38;;;;;;;5.70;1.20;;;5.30;99.90;;;;;;5087738;28;20402;-57
2022/02/06 07:20:05;;;;;;;5.30;1.30;;;5.30;99.90;;;;;;5088486;28;20408;-57
2022/02/06 07:22:34;;;;;;;6.13;1.23;;;5.40;99.90;;;;;;5088093;28;20382;-57
2022/02/06 07:25:01;;;;;;;7.40;1.20;;;5.30;99.90;;;;;;5088964;28;20382;-58
2022/02/06 07:27:33;;;;;;;8.75;1.50;;;5.60;99.90;;;;;;5088451;28;20469;-58
2022/02/06 07:30:04;;;;;;;5.78;1.40;;;5.40;99.90;;;;;;5089137;28;20844;-57
2022/02/06 07:32:37;;;;;;;6.50;1.30;;;5.40;99.90;;;;;;5088492;28;20451;-57
2022/02/06 07:35:04;;;;;;;4.90;1.30;;;5.50;99.90;;;;;;5094563;28;20463;-58
2022/02/06 07:37:30;;;;;;;5.25;1.25;;;5.50;99.90;;;;;;5105468;28;20385;-58
2022/02/06 07:39:56;;;;;;;7.10;1.30;;;5.50;99.90;;;;;;5109337;28;20942;-57
2022/02/06 07:42:22;;;;;;;6.38;1.63;;;5.50;99.90;;;;;;5099708;28;20386;-60
2022/02/06 07:44:49;;;;;;;6.85;1.52;;;5.50;99.90;;;;;;5108225;28;20387;-58
2022/02/06 07:47:19;;;;;;;9.98;1.30;;;5.50;99.90;;;;;;5109336;28;20390;-58
2022/02/06 07:49:48;;;;;;;4.47;1.00;;;5.60;99.90;;;;;;5096000;28;21000;-58
2022/02/06 07:52:16;;;;;;;8.20;1.20;;;5.50;99.90;;;;;;5089952;28;20911;-57
2022/02/06 07:54:42;;;;;;;6.90;1.40;;;6.50;99.90;;;;;;5086239;28;20400;-58
2022/02/06 07:57:08;;;;;;;4.33;0.90;;;5.60;99.90;;;;;;5086244;28;20398;-58
2022/02/06 07:59:35;;;;;;;7.50;1.20;;;5.60;99.90;;;;;;5089611;28;20591;-58
2022/02/06 08:02:01;;;;;;;7.30;1.17;;;5.70;99.90;;;;;;5092003;28;20386;-57
2022/02/06 08:04:28;;;;;;;7.60;1.40;;;5.60;99.90;;;;;;5091406;28;20389;-58
2022/02/06 08:06:54;;;;;;;6.10;1.20;;;5.60;99.90;;;;;;5086047;28;20417;-58
2022/02/06 08:09:29;;;;;;;4.78;1.02;;;5.70;99.90;;;;;;5089917;28;20425;-58
2022/02/06 08:11:55;;;;;;;8.90;1.67;;;5.70;99.90;;;;;;5090740;28;20431;-57
2022/02/06 08:17:04;;;;;;;7.90;1.57;;;5.70;99.90;;;;;;5088258;28;20400;-57
2022/02/06 08:19:30;;;;;;;5.20;1.30;;;5.70;99.90;;;;;;5090457;28;20935;-57
2022/02/06 08:21:56;;;;;;;6.20;1.50;;;5.80;99.90;;;;;;5091473;28;20374;-56
2022/02/06 08:24:21;;;;;;;7.13;1.40;;;5.80;99.90;;;;;;5090428;28;20375;-57
2022/02/06 08:26:47;;;;;;;7.43;1.40;;;5.90;99.90;;;;;;5090700;28;20378;-56
2022/02/06 08:29:13;;;;;;;7.43;1.40;;;5.70;99.90;;;;;;5091658;28;20426;-57
2022/02/06 08:31:38;;;;;;;6.18;1.50;;;5.70;99.90;;;;;;5090644;28;20401;-57
2022/02/06 08:34:04;;;;;;;5.63;1.30;;;5.80;99.90;;;;;;5091375;28;20863;-57
2022/02/06 08:36:30;;;;;;;6.10;1.50;;;5.90;99.90;;;;;;5090165;28;20831;-57
2022/02/06 08:38:55;;;;;;;5.85;1.35;;;6.00;99.90;;;;;;5090032;28;20394;-57
2022/02/06 08:41:21;;;;;;;8.77;1.50;;;6.00;99.90;;;;;;5091035;28;20493;-57
2022/02/06 08:43:46;;;;;;;4.57;1.10;;;6.00;99.90;;;;;;5089216;28;20384;-57
2022/02/06 08:46:12;;;;;;;5.10;0.90;;;6.10;99.90;;;;;;5084828;28;20940;-57
2022/02/06 08:48:38;;;;;;;7.00;1.60;;;6.20;99.90;;;;;;5089935;28;20386;-57
2022/02/06 08:51:06;;;;;;;5.95;1.00;;;6.80;99.90;;;;;;5091461;28;20391;-57
2022/02/06 08:53:35;;;;;;;9.73;1.40;;;6.20;99.90;;;;;;5090307;28;20416;-57
2022/02/06 08:56:00;;;;;;;5.07;1.20;;;6.20;99.90;;;;;;5091030;28;20379;-57
2022/02/06 08:58:26;;;;;;;4.33;1.00;;;6.30;99.90;;;;;;5090701;28;20461;-57
2022/02/06 09:00:52;;;;;;;8.70;1.30;;;6.30;99.90;;;;;;5090759;28;20756;-57
2022/02/06 09:03:20;;;;;;;6.20;1.30;;;6.40;99.90;;;;;;5088127;28;20386;-57
2022/02/06 09:05:46;;;;;;;7.75;1.25;;;6.40;99.90;;;;;;5092077;28;20526;-57
2022/02/06 09:08:11;;;;;;;5.07;1.00;;;6.30;99.90;;;;;;5090132;28;20378;-57
2022/02/06 09:10:37;;;;;;;6.35;1.00;;;6.40;99.90;;;;;;5085763;28;20390;-57
2022/02/06 09:13:04;;;;;;;7.30;1.40;;;6.40;99.90;;;;;;5090425;28;21087;-57
2022/02/06 09:15:30;;;;;;;6.35;1.00;;;6.40;99.90;;;;;;5087210;28;20398;-57
2022/02/06 09:17:56;;;;;;;7.05;1.02;;;6.40;99.90;;;;;;5089842;28;20414;-57
2022/02/06 09:20:23;;;;;;;5.80;1.10;;;7.20;99.90;;;;;;5090446;28;20406;-57
2022/02/06 09:22:48;;;;;;;5.43;0.80;;;6.40;99.90;;;;;;5089086;28;20522;-57
2022/02/06 09:25:14;;;;;;;5.60;1.10;;;6.40;99.90;;;;;;5089693;28;20859;-57
2022/02/06 09:27:42;;;;;;;5.53;1.10;;;6.40;99.90;;;;;;5089728;28;20469;-57
2022/02/06 09:30:12;;;;;;;5.60;1.30;;;7.90;99.90;;;;;;5089337;28;20417;-57
2022/02/06 09:37:32;;;;;;;6.97;1.40;;;6.40;99.90;;;;;;5084471;28;20409;-58
2022/02/06 09:39:58;;;;;;;6.45;1.20;;;8.20;99.90;;;;;;5075965;28;20406;-58
2022/02/06 09:42:26;;;;;;;5.00;1.20;;;7.60;99.90;;;;;;5070399;28;20714;-57
2022/02/06 09:44:52;;;;;;;9.32;1.20;;;6.50;99.90;;;;;;5087447;28;20401;-57
2022/02/06 09:47:27;;;;;;;8.47;1.60;;;6.40;99.90;;;;;;5084227;28;20401;-57
2022/02/06 09:49:53;;;;;;;6.93;1.10;;;8.00;99.90;;;;;;5079519;28;20380;-57
2022/02/06 09:52:25;;;;;;;7.82;1.40;;;6.50;99.90;;;;;;5090155;28;20381;-57
2022/02/06 09:55:01;;;;;;;5.85;0.90;;;6.60;99.90;;;;;;5089001;28;20465;-57
2022/02/06 09:57:30;;;;;;;6.75;1.10;;;6.70;99.90;;;;;;5083902;28;20399;-59
2022/02/06 09:59:57;;;;;;;6.30;1.10;;;6.70;99.90;;;;;;5089083;28;20471;-57
2022/02/06 10:02:32;;;;;;;9.98;1.10;;;6.80;99.90;;;;;;5089376;28;20498;-57
2022/02/06 10:04:58;;;;;;;6.10;1.30;;;6.80;99.90;;;;;;5088275;28;20386;-57
2022/02/06 10:07:40;;;;;;;6.22;1.30;;;6.80;99.90;;;;;;5079910;28;20980;-57
2022/02/06 10:10:12;;;;;;;7.47;1.20;;;6.80;99.90;;;;;;5087993;28;20802;-57
2022/02/06 10:12:44;;;;;;;6.47;1.30;;;6.80;99.90;;;;;;5071843;28;20380;-57
2022/02/06 10:15:15;;;;;;;6.32;0.90;;;7.00;99.90;;;;;;5088349;28;20401;-57
2022/02/06 10:17:41;;;;;;;4.25;1.00;;;6.90;99.90;;;;;;5088806;28;20413;-57
2022/02/06 10:20:18;;;;;;;5.05;1.00;;;6.80;99.90;;;;;;5089510;28;20402;-57
2022/02/06 10:25:17;;;;;;;8.95;0.90;;;7.00;99.90;;;;;;5088901;28;20872;-57
2022/02/06 10:27:54;;;;;;;6.53;1.38;;;7.00;99.90;;;;;;5087648;28;20444;-57
2022/02/06 10:30:44;;;;;;;7.97;1.10;;;7.10;99.90;;;;;;5089203;28;20386;-57
2022/02/06 10:33:12;;;;;;;4.90;1.10;;;7.20;99.90;;;;;;5081024;28;20402;-57
2022/02/06 10:35:40;;;;;;;5.65;1.20;;;7.20;99.90;;;;;;5088267;28;20393;-57
2022/02/06 10:38:19;;;;;;;6.72;1.30;;;7.40;99.90;;;;;;5087575;28;20432;-58
2022/02/06 10:41:07;;;;;;;5.32;1.40;;;7.60;99.90;;;;;;5088148;28;20402;-57
2022/02/06 10:43:35;;;;;;;7.22;1.25;;;7.70;99.90;;;;;;5088591;28;20378;-57
2022/02/06 10:46:12;;;;;;;4.70;0.90;;;7.70;99.90;;;;;;5088982;28;20424;-58
2022/02/06 10:48:49;;;;;;;6.60;1.20;;;7.70;99.90;;;;;;5086913;28;20475;-57
2022/02/06 10:51:34;;;;;;;4.45;1.00;;;7.80;99.90;;;;;;5088855;28;20385;-58
2022/02/06 10:53:59;;;;;;;5.45;1.00;;;7.80;99.90;;;;;;5089158;28;20382;-57
2022/02/06 10:56:25;;;;;;;6.00;1.00;;;7.70;99.90;;;;;;5088149;28;20393;-57
2022/02/06 10:59:02;;;;;;;5.37;1.00;;;7.80;99.90;;;;;;5085134;28;20547;-57
2022/02/06 11:01:30;;;;;;;7.05;1.10;;;7.80;99.90;;;;;;5078212;28;20404;-58
2022/02/06 11:04:19;;;;;;;6.10;1.40;;;7.90;99.90;;;;;;5087646;28;20596;-58
2022/02/06 11:07:03;;;;;;;5.82;1.20;;;7.90;99.90;;;;;;5092455;28;20380;-55
2022/02/06 11:09:30;;;;;;;4.78;1.23;;;8.10;99.90;;;;;;5095809;28;20877;-57
2022/02/06 11:11:59;;;;;;;5.85;0.75;;;8.00;99.90;;;;;;5091557;28;20485;-56
2022/02/06 11:14:27;;;;;;;4.05;0.80;;;7.90;99.90;;;;;;5096032;28;20400;-57
2022/02/06 11:16:53;;;;;;;5.72;1.00;;;7.90;99.90;;;;;;5094057;28;20389;-57
2022/02/06 11:19:20;;;;;;;7.25;1.20;;;7.90;99.90;;;;;;5094590;28;20445;-56
2022/02/06 11:22:09;;;;;;;5.65;1.13;;;7.80;99.90;;;;;;5091158;28;20446;-56
2022/02/06 11:24:39;;;;;;;6.75;1.55;;;7.80;99.90;;;;;;5090571;28;20391;-56
2022/02/06 11:27:08;;;;;;;4.80;0.80;;;7.70;99.90;;;;;;5091421;28;20377;-57
2022/02/06 11:29:35;;;;;;;4.70;0.80;;;7.60;99.90;;;;;;5092212;28;20410;-56
2022/02/06 11:32:01;;;;;;;5.50;1.10;;;7.50;99.90;;;;;;5090930;28;20820;-56
2022/02/06 11:34:28;;;;;;;3.90;0.70;;;7.50;99.90;;;;;;5092777;28;21391;-56
2022/02/06 11:46:08;;;;;;;4.40;0.73;;;7.70;99.90;;;;;;5086346;28;20929;-56
2022/02/06 11:48:36;;;;;;;7.57;0.80;;;7.60;99.90;;;;;;5091921;28;20492;-56
2022/02/06 11:51:02;;;;;;;5.87;0.70;;;7.70;99.90;;;;;;5084985;28;20474;-56
2022/02/06 11:53:38;;;;;;;5.78;0.70;;;7.70;99.90;;;;;;5090968;28;20875;-56
2022/02/06 11:56:23;;;;;;;4.18;0.70;;;7.70;99.90;;;;;;5093004;28;20400;-56
2022/02/06 11:58:50;;;;;;;4.40;0.90;;;7.70;99.90;;;;;;5085682;28;20399;-56
2022/02/06 12:01:16;;;;;;;4.43;0.98;;;7.80;99.90;;;;;;5088167;28;20419;-56
2022/02/06 12:03:58;;;;;;;4.87;0.50;;;7.70;99.90;;;;;;5087932;28;20417;-56
2022/02/06 12:06:45;;;;;;;3.90;0.80;;;7.70;99.90;;;;;;5100880;28;20881;-56
2022/02/06 12:09:12;;;;;;;4.43;0.70;;;7.80;99.90;;;;;;5094921;28;20847;-56
2022/02/06 12:11:38;;;;;;;5.10;0.80;;;7.90;99.90;;;;;;5086737;28;20390;-56
2022/02/06 12:14:10;;;;;;;4.40;0.70;;;7.80;99.90;;;;;;5084184;28;20411;-57
2022/02/06 12:16:43;;;;;;;4.60;0.98;;;7.80;99.90;;;;;;5084248;28;20414;-57
2022/02/06 12:20:02;;;;;;;4.70;0.70;;;7.90;99.90;;;;;;5086288;28;20429;-57
2022/02/06 12:22:28;;;;;;;4.00;0.70;;;7.80;99.90;;;;;;5043126;28;20497;-57
2022/02/06 12:25:16;;;;;;;3.30;0.40;;;7.80;99.90;;;;;;5083679;28;20483;-57
2022/02/06 12:27:42;;;;;;;4.05;0.60;;;7.60;99.90;;;;;;5088613;28;20935;-57
2022/02/06 12:30:08;;;;;;;3.72;0.70;;;7.60;99.90;;;;;;5090482;28;20390;-57
2022/02/06 12:32:39;;;;;;;3.60;0.63;;;7.60;99.90;;;;;;5088714;28;20781;-57
2022/02/06 12:37:56;;;;;;;3.40;0.50;;;7.70;99.90;;;;;;5088069;28;20457;-57
2022/02/06 12:40:26;;;;;;;3.45;0.47;;;7.80;99.90;;;;;;5090553;28;20409;-56
2022/02/06 12:43:00;;;;;;;4.30;0.50;;;7.70;99.90;;;;;;5087093;28;21336;-57
2022/02/06 12:45:29;;;;;;;3.50;0.40;;;7.90;99.90;;;;;;5088379;28;20440;-57
2022/02/06 12:48:03;;;;;;;3.60;0.50;;;7.80;99.90;;;;;;5092078;28;20381;-57
2022/02/06 12:50:34;;;;;;;4.05;0.50;;;7.90;99.90;;;;;;5090189;28;20894;-57
2022/02/06 12:53:05;;;;;;;4.60;0.60;;;7.90;99.90;;;;;;5092166;28;20432;-57
2022/02/06 12:55:33;;;;;;;4.47;0.80;;;7.90;99.90;;;;;;5092166;28;20394;-57
2022/02/06 12:58:00;;;;;;;4.13;0.73;;;;;;;;;;5091216;28;20389;-57
2022/02/06 13:00:46;;;;;;;4.00;0.70;;;7.70;99.90;;;;;;5091758;28;21290;-57
2022/02/06 13:03:35;;;;;;;4.28;0.60;;;7.80;99.90;;;;;;5087856;28;20398;-57
2022/02/06 13:06:09;;;;;;;4.20;0.60;;;7.70;99.90;;;;;;5093379;28;20384;-57
2022/02/06 13:08:38;;;;;;;4.20;0.60;;;7.60;99.90;;;;;;5089893;28;20426;-57
2022/02/06 13:11:24;;;;;;;3.50;0.50;;;7.50;99.90;;;;;;5088489;28;20393;-56
2022/02/06 13:14:05;;;;;;;4.30;0.50;;;7.40;99.90;;;;;;5084170;28;20397;-57
2022/02/06 13:22:10;;;;;;;4.20;0.50;;;7.40;99.90;;;;;;5089855;28;20393;-56
2022/02/06 13:32:44;;;;;;;4.10;0.60;;;7.20;99.90;;;;;;5085598;28;20440;-58
2022/02/06 13:37:45;;;;;;;3.50;0.50;;;7.00;99.90;;;;;;5088872;28;20914;-57
2022/02/06 13:40:22;;;;;;;3.70;0.70;;;7.00;99.90;;;;;;5089200;28;20459;-57
2022/02/06 13:43:04;;;;;;;3.53;0.50;;;7.10;99.90;;;;;;5086604;28;20455;-57
2022/02/06 13:45:35;;;;;;;4.50;0.50;;;7.00;99.90;;;;;;5088277;28;20484;-55
2022/02/06 13:48:02;;;;;;;3.40;0.50;;;7.00;99.90;;;;;;5088349;28;20391;-56
2022/02/06 13:50:29;;;;;;;3.20;0.43;;;6.90;99.90;;;;;;5084088;28;20703;-56
2022/02/06 13:53:13;;;;;;;3.33;0.50;;;6.90;99.90;;;;;;5081608;28;20451;-56
2022/02/06 13:55:56;;;;;;;3.83;0.40;;;6.90;99.90;;;;;;5082915;28;20438;-56
2022/02/06 13:58:24;;;;;;;3.30;0.40;;;6.70;99.90;;;;;;5087140;28;20405;-56
2022/02/06 14:01:07;;;;;;;3.17;0.50;;;6.70;99.90;;;;;;5084933;28;20774;-57
2022/02/06 14:03:46;;;;;;;4.00;0.60;;;6.90;99.90;;;;;;5083480;28;20406;-57
2022/02/06 14:06:15;;;;;;;3.00;0.30;;;7.20;99.90;;;;;;5089143;28;20759;-57
2022/02/06 14:09:07;;;;;;;3.00;0.40;;;6.50;99.90;;;;;;5087623;28;20385;-57
2022/02/06 14:11:34;;;;;;;3.40;0.40;;;6.40;99.90;;;;;;5093004;28;20378;-57
2022/02/06 14:14:16;;;;;;;3.58;0.50;;;6.30;99.90;;;;;;5096470;28;20387;-56
2022/02/06 14:16:46;;;;;;;3.87;0.53;;;6.30;99.90;;;;;;5097733;28;20404;-57
2022/02/06 14:19:13;;;;;;;3.72;0.50;;;6.40;99.90;;;;;;5097863;28;20494;-57
2022/02/06 14:21:48;;;;;;;3.80;0.70;;;6.40;99.90;;;;;;5089984;28;20417;-57
2022/02/06 14:24:15;;;;;;;3.80;0.50;;;6.30;99.90;;;;;;5088787;28;20421;-57
2022/02/06 14:27:03;;;;;;;3.90;0.50;;;6.30;99.90;;;;;;5088383;28;20370;-57
2022/02/06 14:29:31;;;;;;;3.53;0.60;;;6.30;99.90;;;;;;5089086;28;20409;-57
2022/02/06 14:32:18;;;;;;;3.20;0.40;;;6.20;99.90;;;;;;5090662;28;20952;-57
2022/02/06 14:35:00;;;;;;;8.40;0.60;;;6.20;99.90;;;;;;5085696;28;20414;-57
2022/02/06 14:37:29;;;;;;;6.35;0.93;;;6.20;99.90;;;;;;5090526;28;20410;-57
2022/02/06 14:40:13;;;;;;;3.20;0.50;;;6.30;99.90;;;;;;5087881;28;20514;-57
2022/02/06 14:42:54;;;;;;;5.40;0.40;;;6.20;99.90;;;;;;5082796;28;20402;-57
2022/02/06 14:45:20;;;;;;;4.10;0.40;;;6.20;99.90;;;;;;5086559;28;20867;-57
2022/02/06 14:47:47;;;;;;;2.90;0.30;;;6.10;99.90;;;;;;5087091;28;20443;-57
2022/02/06 14:50:15;;;;;;;3.00;0.40;;;6.10;99.90;;;;;;5082178;28;20411;-57
2022/02/06 14:52:41;;;;;;;3.92;0.70;;;6.10;99.90;;;;;;5086541;28;20386;-57
2022/02/06 14:55:07;;;;;;;3.20;0.40;;;6.20;99.90;;;;;;5088864;28;20453;-57
2022/02/06 14:57:33;;;;;;;3.20;0.30;;;6.10;99.90;;;;;;5084274;28;20404;-57
2022/02/06 15:00:00;;;;;;;3.10;0.47;;;6.10;99.90;;;;;;5093880;28;20427;-57
2022/02/06 15:02:25;;;;;;;3.10;0.40;;;6.00;99.90;;;;;;5088802;28;20451;-58
2022/02/06 15:04:51;;;;;;;3.10;0.40;;;6.00;99.90;;;;;;5088366;28;20475;-58
2022/02/06 15:07:17;;;;;;;3.00;0.40;;;6.00;99.90;;;;;;5092560;28;20394;-57
2022/02/06 15:09:43;;;;;;;3.00;0.30;;;6.10;99.90;;;;;;5091153;28;20386;-57
2022/02/06 15:12:09;;;;;;;3.47;0.57;;;6.00;99.90;;;;;;5083682;28;20452;-56
2022/02/06 15:14:35;;;;;;;3.40;0.50;;;5.90;99.90;;;;;;5087555;28;20718;-58
2022/02/06 15:17:00;;;;;;;5.15;0.68;;;5.90;99.90;;;;;;5083541;28;20476;-57
2022/02/06 15:19:31;;;;;;;3.30;0.30;;;5.90;99.90;;;;;;5090282;28;20406;-57
2022/02/06 15:21:57;;;;;;;2.90;0.30;;;5.80;99.90;;;;;;5083091;28;20421;-57
2022/02/06 15:24:24;;;;;;;3.70;0.43;;;5.80;99.90;;;;;;5084136;28;20737;-57
2022/02/06 15:26:49;;;;;;;4.57;0.50;;;5.70;99.90;;;;;;5083223;28;20406;-57
2022/02/06 15:29:15;;;;;;;3.40;0.50;;;5.80;99.90;;;;;;5084253;28;20787;-58
2022/02/06 15:31:41;;;;;;;3.05;0.40;;;5.70;99.90;;;;;;5088102;28;20873;-58
2022/02/06 15:34:07;;;;;;;3.80;0.40;;;5.70;99.90;;;;;;5092228;28;20386;-57
2022/02/06 15:36:36;;;;;;;2.90;0.40;;;5.70;99.90;;;;;;5088163;28;20477;-57
2022/02/06 15:39:13;;;;;;;3.50;0.40;;;5.70;99.90;;;;;;5081442;28;20401;-57
2022/02/06 15:41:40;;;;;;;3.00;0.50;;;5.60;99.90;;;;;;5078484;28;20411;-57
2022/02/06 15:44:06;;;;;;;3.90;0.30;;;5.60;99.90;;;;;;5089948;28;20402;-57
2022/02/06 15:46:33;;;;;;;2.90;0.30;;;5.60;99.90;;;;;;5088450;28;20741;-56
2022/02/06 15:48:58;;;;;;;3.50;0.40;;;5.60;99.90;;;;;;5087389;28;20413;-57
2022/02/06 15:51:33;;;;;;;3.40;0.40;;;5.60;99.90;;;;;;5074303;28;20789;-57
2022/02/06 15:53:58;;;;;;;2.90;0.30;;;5.70;99.90;;;;;;5074173;28;20396;-56
2022/02/06 15:56:24;;;;;;;3.30;0.33;;;5.70;99.90;;;;;;5082145;28;20426;-57